Time,TemperatureF,DewpointF,PressureIn,WindDirection,WindDirectionDegrees,WindSpeedMPH,WindSpeedGustMPH,Humidity,HourlyPrecipIn,Conditions,Clouds,dailyrainin,SoftwareType,DateUTC
2013-04-03 00:00:00,28.0,19.1,30.32,NW,315,0.0,0.0,69,0.00,,,0.00,Wunderground v.1.15,2013-04-03 04:00:00,
2013-04-03 00:10:00,27.9,18.7,30.32,NW,315,0.0,0.0,68,0.00,,,0.00,Wunderground v.1.15,2013-04-03 04:10:00,
2013-04-03 00:20:00,27.8,17.2,30.32,NW,315,0.0,0.0,64,0.00,,,0.00,Wunderground v.1.15,2013-04-03 04:20:00,
2013-04-03 00:30:00,27.5,19.3,30.32,NW,315,0.0,0.0,71,0.00,,,0.00,Wunderground v.1.15,2013-04-03 04:30:00,
2013-04-03 00:40:00,27.0,18.2,30.32,NW,315,0.0,0.0,69,0.00,,,0.00,Wunderground v.1.15,2013-04-03 04:40:00,
2013-04-03 00:50:00,27.2,20.6,30.32,NW,315,0.0,0.0,76,0.00,,,0.00,Wunderground v.1.15,2013-04-03 04:50:00,
2013-04-03 01:00:00,27.6,18.4,30.32,NW,315,0.0,0.0,68,0.00,,,0.00,Wunderground v.1.15,2013-04-03 05:00:00,
2013-04-03 01:10:00,27.5,20.6,30.33,NNW,340,3.0,3.0,75,0.00,,,0.00,Wunderground v.1.15,2013-04-03 05:10:00,
2013-04-03 01:20:00,27.7,20.5,30.33,NNW,342,2.0,2.0,74,0.00,,,0.00,Wunderground v.1.15,2013-04-03 05:20:00,
2013-04-03 01:30:00,27.8,19.6,30.34,NNW,340,0.0,0.0,71,0.00,,,0.00,Wunderground v.1.15,2013-04-03 05:30:00,
2013-04-03 01:35:00,27.7,19.8,30.34,NNW,340,0.0,0.0,72,0.00,,,0.00,Wunderground v.1.15,2013-04-03 05:35:00,
2013-04-03 01:50:00,28.1,19.6,30.34,NNW,340,2.0,2.0,70,0.00,,,0.00,Wunderground v.1.15,2013-04-03 05:50:00,
2013-04-03 02:00:00,28.0,19.5,30.34,NNW,340,0.0,0.0,70,0.00,,,0.00,Wunderground v.1.15,2013-04-03 06:00:00,
2013-04-03 02:10:00,28.1,19.6,30.34,NNW,340,0.0,0.0,70,0.00,,,0.00,Wunderground v.1.15,2013-04-03 06:10:00,
2013-04-03 02:20:00,28.5,18.6,30.34,NNW,340,0.0,0.0,66,0.00,,,0.00,Wunderground v.1.15,2013-04-03 06:20:00,
2013-04-03 02:30:00,28.9,18.2,30.35,NNW,340,0.0,0.0,64,0.00,,,0.00,Wunderground v.1.15,2013-04-03 06:30:00,
2013-04-03 02:35:00,28.9,18.2,30.35,NNW,340,0.0,0.0,64,0.00,,,0.00,Wunderground v.1.15,2013-04-03 06:35:00,
2013-04-03 02:50:00,28.9,17.5,30.35,NNW,340,0.0,0.0,62,0.00,,,0.00,Wunderground v.1.15,2013-04-03 06:50:00,
2013-04-03 02:59:00,28.5,17.5,30.35,NNW,340,0.0,0.0,63,0.00,,,0.00,Wunderground v.1.15,2013-04-03 06:59:00,
2013-04-03 03:10:00,28.3,16.9,30.35,NNW,340,0.0,0.0,62,0.00,,,0.00,Wunderground v.1.15,2013-04-03 07:10:00,
2013-04-03 03:20:00,28.1,17.1,30.35,NNW,340,0.0,0.0,63,0.00,,,0.00,Wunderground v.1.15,2013-04-03 07:20:00,
2013-04-03 03:29:00,27.8,17.2,30.35,NNW,340,0.0,0.0,64,0.00,,,0.00,Wunderground v.1.15,2013-04-03 07:29:00,
2013-04-03 03:39:00,27.4,16.4,30.35,NNW,340,0.0,0.0,63,0.00,,,0.00,Wunderground v.1.15,2013-04-03 07:39:00,
2013-04-03 03:49:00,26.8,16.2,30.36,NNW,340,0.0,0.0,64,0.00,,,0.00,Wunderground v.1.15,2013-04-03 07:49:00,
2013-04-03 04:00:00,26.5,16.0,30.36,NNW,340,0.0,0.0,64,0.00,,,0.00,Wunderground v.1.15,2013-04-03 08:00:00,
2013-04-03 04:09:00,26.3,15.4,30.36,NNW,340,0.0,0.0,63,0.00,,,0.00,Wunderground v.1.15,2013-04-03 08:09:00,
2013-04-03 04:19:00,25.9,15.7,30.36,NNW,340,0.0,0.0,65,0.00,,,0.00,Wunderground v.1.15,2013-04-03 08:19:00,
2013-04-03 04:30:00,25.3,15.5,30.35,NNW,340,0.0,0.0,66,0.00,,,0.00,Wunderground v.1.15,2013-04-03 08:30:00,
2013-04-03 04:39:00,24.9,15.8,30.35,NNW,340,0.0,0.0,68,0.00,,,0.00,Wunderground v.1.15,2013-04-03 08:39:00,
2013-04-03 04:49:00,24.5,16.8,30.36,NNW,340,0.0,0.0,72,0.00,,,0.00,Wunderground v.1.15,2013-04-03 08:49:00,
2013-04-03 04:59:00,24.2,15.8,30.36,NNW,340,0.0,0.0,70,0.00,,,0.00,Wunderground v.1.15,2013-04-03 08:59:00,
2013-04-03 05:09:00,23.8,15.1,30.36,NNW,340,0.0,0.0,69,0.00,,,0.00,Wunderground v.1.15,2013-04-03 09:09:00,
2013-04-03 05:19:00,23.5,14.8,30.36,NNW,340,0.0,0.0,69,0.00,,,0.00,Wunderground v.1.15,2013-04-03 09:19:00,
2013-04-03 05:29:00,23.8,14.4,30.37,NNW,340,0.0,0.0,67,0.00,,,0.00,Wunderground v.1.15,2013-04-03 09:29:00,
2013-04-03 05:39:00,23.6,14.2,30.37,NNW,340,0.0,0.0,67,0.00,,,0.00,Wunderground v.1.15,2013-04-03 09:39:00,
2013-04-03 05:49:00,23.2,14.5,30.37,NNW,340,0.0,0.0,69,0.00,,,0.00,Wunderground v.1.15,2013-04-03 09:49:00,
2013-04-03 05:59:00,23.1,14.4,30.37,NNW,340,0.0,0.0,69,0.00,,,0.00,Wunderground v.1.15,2013-04-03 09:59:00,
2013-04-03 06:09:00,23.5,16.1,30.38,NNW,340,0.0,0.0,73,0.00,,,0.00,Wunderground v.1.15,2013-04-03 10:09:00,
2013-04-03 06:19:00,23.3,15.6,30.38,NNW,340,0.0,0.0,72,0.00,,,0.00,Wunderground v.1.15,2013-04-03 10:19:00,
2013-04-03 06:29:00,23.4,17.3,30.38,NNW,340,0.0,0.0,77,0.00,,,0.00,Wunderground v.1.15,2013-04-03 10:29:00,
2013-04-03 06:39:00,23.6,16.5,30.37,NNW,340,0.0,0.0,74,0.00,,,0.00,Wunderground v.1.15,2013-04-03 10:39:00,
2013-04-03 06:44:00,23.7,16.9,30.38,NNW,340,0.0,0.0,75,0.00,,,0.00,Wunderground v.1.15,2013-04-03 10:44:00,
2013-04-03 06:59:00,23.8,16.4,30.38,NNW,340,0.0,0.0,73,0.00,,,0.00,Wunderground v.1.15,2013-04-03 10:59:00,
2013-04-03 07:09:00,23.3,16.2,30.38,NNW,340,0.0,0.0,74,0.00,,,0.00,Wunderground v.1.15,2013-04-03 11:09:00,
2013-04-03 07:19:00,22.9,15.8,30.38,NNW,340,0.0,0.0,74,0.00,,,0.00,Wunderground v.1.15,2013-04-03 11:19:00,
2013-04-03 07:29:00,22.4,16.3,30.39,NNW,340,0.0,0.0,77,0.00,,,0.00,Wunderground v.1.15,2013-04-03 11:29:00,
2013-04-03 07:39:00,22.5,17.8,30.40,NNW,340,0.0,0.0,82,0.00,,,0.00,Wunderground v.1.15,2013-04-03 11:39:00,
2013-04-03 07:44:00,22.7,18.3,30.40,NNW,340,0.0,0.0,83,0.00,,,0.00,Wunderground v.1.15,2013-04-03 11:44:00,
2013-04-03 07:59:00,23.3,18.6,30.42,NNE,26,0.0,0.0,82,0.00,,,0.00,Wunderground v.1.15,2013-04-03 11:59:00,
2013-04-03 08:09:00,24.3,19.9,30.42,NNE,26,0.0,0.0,83,0.00,,,0.00,Wunderground v.1.15,2013-04-03 12:09:00,
2013-04-03 08:19:00,26.1,20.5,30.42,NNE,26,0.0,0.0,79,0.00,,,0.00,Wunderground v.1.15,2013-04-03 12:19:00,
2013-04-03 08:29:00,28.0,22.0,30.42,NNE,26,1.0,1.0,78,0.00,,,0.00,Wunderground v.1.15,2013-04-03 12:29:00,
2013-04-03 08:39:00,29.3,21.7,30.43,NNE,26,0.0,0.0,73,0.00,,,0.00,Wunderground v.1.15,2013-04-03 12:39:00,
2013-04-03 08:49:00,30.9,19.4,30.44,NNE,26,0.0,0.0,62,0.00,,,0.00,Wunderground v.1.15,2013-04-03 12:49:00,
2013-04-03 08:59:00,32.4,19.3,30.45,NNE,26,0.0,0.0,58,0.00,,,0.00,Wunderground v.1.15,2013-04-03 12:59:00,
2013-04-03 09:09:00,33.6,19.6,30.45,NNE,26,1.0,2.0,56,0.00,,,0.00,Wunderground v.1.15,2013-04-03 13:09:00,
2013-04-03 09:19:00,34.1,18.3,30.46,NNE,26,1.0,2.0,52,0.00,,,0.00,Wunderground v.1.15,2013-04-03 13:19:00,
2013-04-03 09:29:00,34.2,17.9,30.46,East,84,2.0,2.0,51,0.00,,,0.00,Wunderground v.1.15,2013-04-03 13:29:00,
2013-04-03 09:39:00,34.5,17.3,30.46,NNE,31,2.0,4.0,49,0.00,,,0.00,Wunderground v.1.15,2013-04-03 13:39:00,
2013-04-03 09:44:00,34.7,17.9,30.46,NNE,31,2.0,4.0,50,0.00,,,0.00,Wunderground v.1.15,2013-04-03 13:44:00,
2013-04-03 09:59:00,35.3,18.0,30.47,NNE,22,2.0,3.0,49,0.00,,,0.00,Wunderground v.1.15,2013-04-03 13:59:00,
2013-04-03 10:09:00,35.8,19.0,30.47,NNE,19,2.0,2.0,50,0.00,,,0.00,Wunderground v.1.15,2013-04-03 14:09:00,
2013-04-03 10:19:00,36.4,19.5,30.47,NNE,32,2.0,2.0,50,0.00,,,0.00,Wunderground v.1.15,2013-04-03 14:19:00,
2013-04-03 10:28:00,36.8,19.4,30.47,NNE,21,3.0,3.0,49,0.00,,,0.00,Wunderground v.1.15,2013-04-03 14:28:00,
2013-04-03 10:38:00,37.3,19.4,30.47,North,350,4.0,4.0,48,0.00,,,0.00,Wunderground v.1.15,2013-04-03 14:38:00,
2013-04-03 10:48:00,37.5,17.5,30.47,North,5,3.0,4.0,44,0.00,,,0.00,Wunderground v.1.15,2013-04-03 14:48:00,
2013-04-03 10:54:00,37.6,16.5,30.48,NNW,341,4.0,5.0,42,0.00,,,0.00,Wunderground v.1.15,2013-04-03 14:54:00,
2013-04-03 11:08:00,38.8,19.2,30.48,NNE,31,2.0,4.0,45,0.00,,,0.00,Wunderground v.1.15,2013-04-03 15:08:00,
2013-04-03 11:18:00,39.1,16.8,30.48,NE,38,3.0,3.0,40,0.00,,,0.00,Wunderground v.1.15,2013-04-03 15:18:00,
2013-04-03 11:28:00,39.1,16.8,30.47,NE,51,3.0,5.0,40,0.00,,,0.00,Wunderground v.1.15,2013-04-03 15:28:00,
2013-04-03 11:38:00,39.8,18.5,30.47,North,360,3.0,3.0,42,0.00,,,0.00,Wunderground v.1.15,2013-04-03 15:38:00,
2013-04-03 11:48:00,39.8,18.0,30.47,North,355,5.0,5.0,41,0.00,,,0.00,Wunderground v.1.15,2013-04-03 15:48:00,
2013-04-03 11:58:00,39.5,16.0,30.47,NW,326,6.0,6.0,38,0.00,,,0.00,Wunderground v.1.15,2013-04-03 15:58:00,
2013-04-03 12:28:00,40.4,18.5,30.47,NE,34,4.0,4.0,41,0.00,,,0.00,Wunderground v.1.15,2013-04-03 16:28:00,
2013-04-03 12:38:00,40.7,18.8,30.45,North,11,5.0,5.0,41,0.00,,,0.00,Wunderground v.1.15,2013-04-03 16:38:00,
2013-04-03 13:48:00,42.2,17.1,30.45,ESE,105,5.0,8.0,36,0.00,,,0.00,Wunderground v.1.15,2013-04-03 17:48:00,
2013-04-03 14:18:00,43.0,17.8,30.43,NNW,340,5.0,5.0,36,0.00,,,0.00,Wunderground v.1.15,2013-04-03 18:18:00,
2013-04-03 14:28:00,43.2,18.0,30.43,NNE,20,6.0,6.0,36,0.00,,,0.00,Wunderground v.1.15,2013-04-03 18:28:00,
2013-04-03 14:39:00,43.7,17.1,30.42,NNE,23,5.0,5.0,34,0.00,,,0.00,Wunderground v.1.15,2013-04-03 18:39:00,
2013-04-03 15:48:00,44.3,17.0,30.42,NE,38,6.0,6.0,33,0.00,,,0.00,Wunderground v.1.15,2013-04-03 19:48:00,
2013-04-03 16:08:00,45.0,19.0,30.43,NNW,328,3.0,3.0,35,0.00,,,0.00,Wunderground v.1.15,2013-04-03 20:08:00,
2013-04-03 16:18:00,45.0,16.9,30.43,North,355,4.0,4.0,32,0.00,,,0.00,Wunderground v.1.15,2013-04-03 20:18:00,
2013-04-03 16:28:00,45.1,18.4,30.43,ESE,117,3.0,5.0,34,0.00,,,0.00,Wunderground v.1.15,2013-04-03 20:28:00,
2013-04-03 16:38:00,45.3,17.8,30.43,NW,309,3.0,3.0,33,0.00,,,0.00,Wunderground v.1.15,2013-04-03 20:38:00,
2013-04-03 16:48:00,46.0,17.7,30.42,NNE,22,3.0,3.0,32,0.00,,,0.00,Wunderground v.1.15,2013-04-03 20:48:00,
2013-04-03 17:08:00,45.9,17.7,30.42,North,355,3.0,3.0,32,0.00,,,0.00,Wunderground v.1.15,2013-04-03 21:08:00,
2013-04-03 17:18:00,46.3,18.7,30.42,NNE,16,3.0,6.0,33,0.00,,,0.00,Wunderground v.1.15,2013-04-03 21:18:00,
2013-04-03 17:28:00,46.0,18.5,30.42,East,89,4.0,5.0,33,0.00,,,0.00,Wunderground v.1.15,2013-04-03 21:28:00,
2013-04-03 17:48:00,45.5,18.0,30.42,NE,50,5.0,5.0,33,0.00,,,0.00,Wunderground v.1.15,2013-04-03 21:48:00,
2013-04-03 18:18:00,45.1,17.0,30.42,East,98,5.0,10.0,32,0.00,,,0.00,Wunderground v.1.15,2013-04-03 22:18:00,
2013-04-03 18:28:00,45.0,16.9,30.42,NE,52,5.0,5.0,32,0.00,,,0.00,Wunderground v.1.15,2013-04-03 22:28:00,
2013-04-03 18:58:00,44.2,17.6,30.40,East,95,6.0,6.0,34,0.00,,,0.00,Wunderground v.1.15,2013-04-03 22:58:00,
2013-04-03 19:08:00,44.0,16.7,30.40,East,80,5.0,5.0,33,0.00,,,0.00,Wunderground v.1.15,2013-04-03 23:08:00,
2013-04-03 19:19:00,44.1,17.5,30.39,ENE,57,2.0,2.0,34,0.00,,,0.00,Wunderground v.1.15,2013-04-03 23:19:00,
2013-04-03 19:28:00,44.2,17.6,30.39,NNE,27,2.0,2.0,34,0.00,,,0.00,Wunderground v.1.15,2013-04-03 23:28:00,
2013-04-03 20:18:00,40.7,18.2,30.39,NNE,33,2.0,2.0,40,0.00,,,0.00,Wunderground v.1.15,2013-04-04 00:18:00,
2013-04-03 20:48:00,39.1,19.5,30.37,NNE,33,1.0,1.0,45,0.00,,,0.00,Wunderground v.1.15,2013-04-04 00:48:00,
2013-04-03 20:59:00,38.9,19.3,30.37,NE,36,1.0,1.0,45,0.00,,,0.00,Wunderground v.1.15,2013-04-04 00:59:00,
2013-04-03 21:09:00,38.6,19.1,30.37,NE,36,1.0,2.0,45,0.00,,,0.00,Wunderground v.1.15,2013-04-04 01:09:00,
2013-04-03 21:58:00,38.4,17.3,30.37,NE,39,1.0,1.0,42,0.00,,,0.00,Wunderground v.1.15,2013-04-04 01:58:00,
2013-04-03 22:48:00,37.0,19.1,30.39,NE,43,1.0,2.0,48,0.00,,,0.00,Wunderground v.1.15,2013-04-04 02:48:00,
2013-04-03 23:58:00,35.0,19.1,30.40,NE,43,0.0,0.0,52,0.00,,,0.00,Wunderground v.1.15,2013-04-04 03:58:00,